createdAt,value
2017-09-01T00:00:51.962Z,7.70
2017-09-01T00:03:19.519Z,7.40
2017-09-01T00:05:47.027Z,7.83
2017-09-01T00:08:14.561Z,7.40
2017-09-01T00:10:42.078Z,7.63
2017-09-01T00:13:09.619Z,8.47
2017-09-01T00:15:37.137Z,8.23
2017-09-01T00:18:04.663Z,8.17
2017-09-01T00:20:32.181Z,9.17
2017-09-01T00:22:59.728Z,8.33
2017-09-01T00:25:27.285Z,8.77
2017-09-01T00:27:54.825Z,8.77
2017-09-01T00:30:22.324Z,9.63
2017-09-01T00:32:49.861Z,8.37
2017-09-01T00:35:20.350Z,9.37
2017-09-01T00:37:47.896Z,9.53
2017-09-01T00:40:15.410Z,10.27
2017-09-01T00:42:42.941Z,9.70
2017-09-01T00:45:10.469Z,9.40
2017-09-01T00:47:37.994Z,9.20
2017-09-01T00:50:05.506Z,8.20
2017-09-01T00:52:33.018Z,8.80
2017-09-01T00:55:00.564Z,9.83
2017-09-01T00:57:28.113Z,8.40
2017-09-01T00:59:55.641Z,8.87
2017-09-01T01:02:23.169Z,9.47
2017-09-01T01:04:50.694Z,9.00
2017-09-01T01:07:18.224Z,9.70
2017-09-01T01:09:45.766Z,9.00
2017-09-01T01:12:13.297Z,11.17
2017-09-01T01:14:40.829Z,9.80
2017-09-01T01:17:08.358Z,10.63
2017-09-01T01:19:35.898Z,9.47
2017-09-01T01:22:03.410Z,9.00
2017-09-01T01:24:30.958Z,10.10
2017-09-01T01:26:58.461Z,9.30
2017-09-01T01:29:26.007Z,10.67
2017-09-01T01:31:53.513Z,10.20
2017-09-01T01:34:21.046Z,11.70
2017-09-01T01:36:48.564Z,9.40
2017-09-01T01:39:16.139Z,8.60
2017-09-01T01:41:43.667Z,8.87
2017-09-01T01:44:11.189Z,9.70
2017-09-01T01:46:38.748Z,8.77
2017-09-01T01:49:06.299Z,7.33
2017-09-01T01:51:33.842Z,8.43
2017-09-01T01:54:01.373Z,9.83
2017-09-01T01:56:28.915Z,10.07
2017-09-01T01:58:56.426Z,8.97
2017-09-01T02:01:23.979Z,7.50
2017-09-01T02:03:51.485Z,8.07
2017-09-01T02:06:22.485Z,8.83
2017-09-01T02:08:49.982Z,8.10
2017-09-01T02:11:17.526Z,8.60
2017-09-01T02:13:45.037Z,9.73
2017-09-01T02:16:12.557Z,9.53
2017-09-01T02:18:40.076Z,9.93
2017-09-01T02:21:07.618Z,9.60
2017-09-01T02:23:35.144Z,8.53
2017-09-01T02:26:02.681Z,9.30
2017-09-01T02:28:30.238Z,7.80
2017-09-01T02:30:57.775Z,7.47
2017-09-01T02:33:25.344Z,6.40
2017-09-01T02:35:56.424Z,6.40
2017-09-01T02:38:23.930Z,7.07
2017-09-01T02:40:51.459Z,7.47
2017-09-01T02:43:19.014Z,7.00
2017-09-01T02:45:46.540Z,8.97
2017-09-01T02:48:14.073Z,8.67
2017-09-01T02:50:41.589Z,9.10
2017-09-01T02:53:09.142Z,9.43
2017-09-01T02:55:36.655Z,10.23
2017-09-01T02:58:04.188Z,11.13
2017-09-01T03:00:31.697Z,10.83
2017-09-01T03:02:59.243Z,13.13
2017-09-01T03:05:26.750Z,13.20
2017-09-01T03:07:54.279Z,14.47
2017-09-01T03:10:21.798Z,15.37
2017-09-01T03:12:49.335Z,15.20
2017-09-01T03:15:16.869Z,15.70
2017-09-01T03:17:44.410Z,11.90
2017-09-01T03:20:11.916Z,13.60
2017-09-01T03:22:39.455Z,13.80
2017-09-01T03:25:06.966Z,13.77
2017-09-01T03:27:34.546Z,15.80
2017-09-01T03:30:02.058Z,14.93
2017-09-01T03:32:29.552Z,15.83
2017-09-01T03:34:57.080Z,14.60
2017-09-01T03:37:24.608Z,15.63
2017-09-01T03:39:52.143Z,14.33
2017-09-01T03:42:19.661Z,14.33
2017-09-01T03:44:47.198Z,16.00
2017-09-01T03:47:14.710Z,15.23
2017-09-01T03:49:42.240Z,14.67
2017-09-01T03:52:09.748Z,16.80
2017-09-01T03:54:37.275Z,14.27
2017-09-01T03:57:04.780Z,14.20
2017-09-01T03:59:32.331Z,15.70
2017-09-01T04:01:59.848Z,15.77
2017-09-01T04:04:27.369Z,14.13
2017-09-01T04:06:54.893Z,15.80
2017-09-01T04:09:22.410Z,15.43
2017-09-01T04:11:49.913Z,14.77
2017-09-01T04:14:17.439Z,15.43
2017-09-01T04:16:44.956Z,14.87
2017-09-01T04:19:12.485Z,13.67
2017-09-01T04:21:40.010Z,14.80
2017-09-01T04:24:07.520Z,12.87
2017-09-01T04:26:35.038Z,15.20
2017-09-01T04:29:02.542Z,13.33
2017-09-01T04:31:30.058Z,13.97
2017-09-01T04:33:57.572Z,12.03
2017-09-01T04:36:25.110Z,13.30
2017-09-01T04:38:52.624Z,14.10
2017-09-01T04:41:20.155Z,12.45
2017-09-01T04:43:47.703Z,11.23
2017-09-01T04:46:15.260Z,10.93
2017-09-01T04:48:42.776Z,9.90
2017-09-01T04:51:10.292Z,12.40
2017-09-01T04:53:37.795Z,10.83
2017-09-01T04:56:05.343Z,9.33
2017-09-01T04:58:32.846Z,8.50
2017-09-01T05:01:00.357Z,8.00
2017-09-01T05:03:27.885Z,9.03
2017-09-01T05:05:55.434Z,8.17
2017-09-01T05:08:22.978Z,7.68
2017-09-01T05:10:50.524Z,7.63
2017-09-01T05:13:18.120Z,6.70
2017-09-01T05:15:45.682Z,6.50
2017-09-01T05:18:13.354Z,6.80
2017-09-01T05:20:40.906Z,6.97
2017-09-01T05:23:08.452Z,6.63
2017-09-01T05:25:36.006Z,5.07
2017-09-01T05:28:03.589Z,6.17
2017-09-01T05:30:31.189Z,6.43
2017-09-01T05:32:59.669Z,7.93
2017-09-01T05:35:27.192Z,7.57
2017-09-01T05:37:58.698Z,7.40
2017-09-01T05:40:26.234Z,7.20
2017-09-01T05:42:53.775Z,6.82
2017-09-01T05:45:21.281Z,7.67
2017-09-01T05:47:48.832Z,7.50
2017-09-01T05:50:16.337Z,8.63
2017-09-01T05:52:43.856Z,10.40
2017-09-01T05:55:11.357Z,10.30
2017-09-01T05:57:38.889Z,10.67
2017-09-01T06:00:06.445Z,11.07
2017-09-01T06:02:33.949Z,11.40
2017-09-01T06:05:01.772Z,11.73
2017-09-01T06:07:29.379Z,12.90
2017-09-01T06:09:57.006Z,11.30
2017-09-01T06:12:24.597Z,10.73
2017-09-01T06:14:52.201Z,9.40
2017-09-01T06:17:19.823Z,8.77
2017-09-01T06:19:47.492Z,8.57
2017-09-01T06:22:15.321Z,10.67
2017-09-01T06:24:42.954Z,10.87
2017-09-01T06:27:10.570Z,14.27
2017-09-01T06:29:40.370Z,12.53
2017-09-01T06:32:07.953Z,13.00
2017-09-01T06:34:35.488Z,12.60
2017-09-01T06:37:03.373Z,13.57
2017-09-01T06:39:30.988Z,14.60
2017-09-01T06:41:58.616Z,15.47
2017-09-01T06:44:29.477Z,15.13
2017-09-01T06:46:57.332Z,14.30
2017-09-01T06:49:24.994Z,14.70
2017-09-01T06:51:52.621Z,16.03
2017-09-01T06:54:20.201Z,15.33
2017-09-01T06:56:47.761Z,15.97
2017-09-01T06:59:15.417Z,15.10
2017-09-01T07:01:43.082Z,14.90
2017-09-01T07:04:10.714Z,15.63
2017-09-01T07:06:38.306Z,15.70
2017-09-01T07:09:05.945Z,15.87
2017-09-01T07:11:33.573Z,16.57
2017-09-01T07:14:01.213Z,16.27
2017-09-01T07:16:28.796Z,16.57
2017-09-01T07:18:56.429Z,17.10
2017-09-01T07:21:24.115Z,17.37
2017-09-01T07:23:54.908Z,17.00
2017-09-01T07:26:22.472Z,19.20
2017-09-01T07:28:50.088Z,19.00
2017-09-01T07:31:17.736Z,19.80
2017-09-01T07:33:45.367Z,19.37
2017-09-01T07:36:12.979Z,19.33
2017-09-01T07:38:40.663Z,18.47
2017-09-01T07:41:08.355Z,18.47
2017-09-01T07:43:35.957Z,20.10
2017-09-01T07:49:08.975Z,17.93
2017-09-01T07:51:36.632Z,17.53
2017-09-01T07:54:04.242Z,17.73
2017-09-01T07:56:32.100Z,17.60
2017-09-01T07:58:59.842Z,19.47
2017-09-01T08:01:29.199Z,17.40
2017-09-01T08:03:57.031Z,18.00
2017-09-01T08:06:31.580Z,16.93
2017-09-01T08:09:00.388Z,17.43
2017-09-01T08:11:28.743Z,18.70
2017-09-01T08:13:56.788Z,17.90
2017-09-01T08:16:24.521Z,16.67
2017-09-01T08:18:52.333Z,16.73
2017-09-01T08:21:21.052Z,17.23
2017-09-01T08:23:48.700Z,16.70
2017-09-01T08:26:16.430Z,14.33
2017-09-01T08:28:45.577Z,13.83
2017-09-01T08:33:46.102Z,15.70
2017-09-01T08:36:13.634Z,14.77
2017-09-01T08:38:41.177Z,11.83
2017-09-01T08:41:08.719Z,12.17
2017-09-01T08:43:36.236Z,10.80
2017-09-01T08:46:03.760Z,10.80
2017-09-01T08:48:31.306Z,11.20
2017-09-01T08:50:58.838Z,11.90
2017-09-01T08:53:26.389Z,12.93
2017-09-01T08:55:53.902Z,12.23
2017-09-01T08:58:21.414Z,11.97
2017-09-01T09:00:48.959Z,12.07
2017-09-01T09:03:16.489Z,12.40
2017-09-01T09:05:44.017Z,11.70
2017-09-01T09:08:11.533Z,13.43
2017-09-01T09:10:39.050Z,12.77
2017-09-01T09:13:06.592Z,11.23
2017-09-01T09:15:34.110Z,11.97
2017-09-01T09:18:01.650Z,11.57
2017-09-01T09:20:29.178Z,13.30
2017-09-01T09:22:56.706Z,12.37
2017-09-01T09:25:27.545Z,14.00
2017-09-01T09:27:55.283Z,12.60
2017-09-01T09:30:22.826Z,13.97
2017-09-01T09:32:54.821Z,14.00
2017-09-01T09:35:22.404Z,12.90
2017-09-01T09:37:49.933Z,10.57
2017-09-01T09:40:17.448Z,12.13
2017-09-01T09:42:44.989Z,12.03
2017-09-01T09:45:12.532Z,13.70
2017-09-01T09:47:40.067Z,9.77
2017-09-01T09:50:07.580Z,10.30
2017-09-01T09:52:35.147Z,11.77
2017-09-01T09:55:02.706Z,12.73
2017-09-01T09:57:30.256Z,11.27
2017-09-01T09:59:57.813Z,11.80
2017-09-01T10:02:25.423Z,13.30
2017-09-01T10:04:53.034Z,13.43
2017-09-01T10:07:21.142Z,12.47
2017-09-01T10:09:48.783Z,12.37
2017-09-01T10:12:16.335Z,12.90
2017-09-01T10:14:43.886Z,12.70
2017-09-01T10:17:12.502Z,11.03
2017-09-01T10:19:40.074Z,11.00
2017-09-01T10:22:07.642Z,11.53
2017-09-01T10:24:35.222Z,11.80
2017-09-01T10:27:02.878Z,10.60
2017-09-01T10:29:30.460Z,11.73
2017-09-01T10:31:58.066Z,10.80
2017-09-01T10:34:25.677Z,11.77
2017-09-01T10:36:53.296Z,11.40
2017-09-01T10:39:21.025Z,11.43
2017-09-01T10:41:48.579Z,11.03
2017-09-01T10:44:16.227Z,11.60
2017-09-01T10:46:43.893Z,11.73
2017-09-01T10:52:32.116Z,11.50
2017-09-01T10:55:11.283Z,11.27
2017-09-01T10:57:50.639Z,10.43
2017-09-01T11:00:18.222Z,9.83
2017-09-01T11:02:45.835Z,10.80
2017-09-01T11:05:19.373Z,9.63
2017-09-01T11:07:46.968Z,9.60
2017-09-01T11:10:31.790Z,8.87
2017-09-01T11:12:59.320Z,9.47
2017-09-01T11:15:26.904Z,10.30
2017-09-01T11:17:54.488Z,10.50
2017-09-01T11:20:27.562Z,9.13
2017-09-01T11:23:00.674Z,9.10
2017-09-01T11:25:28.300Z,10.10
2017-09-01T11:27:56.536Z,9.63
2017-09-01T11:30:24.075Z,8.83
2017-09-01T11:32:51.667Z,8.43
2017-09-01T11:35:19.233Z,9.50
2017-09-01T11:37:46.781Z,9.17
2017-09-01T11:40:14.316Z,8.43
2017-09-01T11:42:41.928Z,6.27
2017-09-01T11:45:10.466Z,7.03
2017-09-01T11:47:38.033Z,7.03
2017-09-01T11:50:05.635Z,7.27
2017-09-01T11:52:33.175Z,7.27
2017-09-01T11:55:02.672Z,6.50
2017-09-01T11:57:30.225Z,7.83
2017-09-01T11:59:57.773Z,7.00
2017-09-01T12:02:25.295Z,7.13
2017-09-01T12:04:53.766Z,7.47
2017-09-01T12:07:21.337Z,8.00
2017-09-01T12:09:48.886Z,7.23
2017-09-01T12:12:16.446Z,7.10
2017-09-01T12:14:44.994Z,7.40
2017-09-01T12:17:12.601Z,7.87
2017-09-01T12:19:40.124Z,8.73
2017-09-01T12:22:07.665Z,9.50
2017-09-01T12:24:36.244Z,8.07
2017-09-01T12:27:07.030Z,8.20
2017-09-01T12:29:34.604Z,7.00
2017-09-01T12:32:02.131Z,7.60
2017-09-01T12:34:33.431Z,7.17
2017-09-01T12:37:00.981Z,7.60
2017-09-01T12:39:28.502Z,6.63
2017-09-01T12:41:56.075Z,7.50
2017-09-01T12:44:23.640Z,7.17
2017-09-01T12:46:51.176Z,6.23
2017-09-01T12:49:18.738Z,5.90
2017-09-01T12:51:46.307Z,7.90
2017-09-01T12:54:13.870Z,6.93
2017-09-01T12:56:41.401Z,7.20
2017-09-01T12:59:08.936Z,7.00
2017-09-01T13:01:36.465Z,7.90
2017-09-01T13:04:03.998Z,6.43
2017-09-01T13:06:31.555Z,5.80
2017-09-01T13:08:59.097Z,6.00
2017-09-01T13:11:26.627Z,6.40
2017-09-01T13:13:54.162Z,6.77
2017-09-01T13:16:21.786Z,5.80
2017-09-01T13:18:49.329Z,6.60
2017-09-01T13:21:16.878Z,7.40
2017-09-01T13:23:44.441Z,6.33
2017-09-01T13:26:12.010Z,7.40
2017-09-01T13:28:39.634Z,7.30
2017-09-01T13:31:07.160Z,7.80
2017-09-01T13:33:34.705Z,6.63
2017-09-01T13:36:03.259Z,6.30
2017-09-01T13:38:31.124Z,6.60
2017-09-01T13:40:58.691Z,6.13
2017-09-01T13:43:29.744Z,6.37
2017-09-01T13:45:57.278Z,6.00
2017-09-01T13:48:24.820Z,7.07
2017-09-01T13:50:52.362Z,6.73
2017-09-01T13:53:19.872Z,6.60
2017-09-01T13:55:47.385Z,6.37
2017-09-01T13:58:14.920Z,6.10
2017-09-01T14:00:42.428Z,7.30
2017-09-01T14:03:09.962Z,6.83
2017-09-01T14:05:37.504Z,6.27
2017-09-01T14:08:05.127Z,6.63
2017-09-01T14:10:34.454Z,6.87
2017-09-01T14:13:02.098Z,6.17
2017-09-01T14:15:29.650Z,5.97
2017-09-01T14:17:57.194Z,5.43
2017-09-01T14:20:25.334Z,6.00
2017-09-01T14:22:52.859Z,5.67
2017-09-01T14:25:20.446Z,5.50
2017-09-01T14:27:48.074Z,5.40
2017-09-01T14:30:15.634Z,5.20
2017-09-01T14:32:43.209Z,6.23
2017-09-01T14:35:10.775Z,5.87
2017-09-01T14:37:38.394Z,5.73
2017-09-01T14:40:05.943Z,5.43
2017-09-01T14:42:33.587Z,5.87
2017-09-01T14:45:01.191Z,5.47
2017-09-01T14:47:28.868Z,5.50
2017-09-01T14:49:56.459Z,6.10
2017-09-01T14:52:24.054Z,5.60
2017-09-01T14:54:51.673Z,5.67
2017-09-01T14:57:19.233Z,5.33
2017-09-01T14:59:46.852Z,5.27
2017-09-01T15:02:14.409Z,5.60
2017-09-01T15:04:41.966Z,5.10
2017-09-01T15:07:09.522Z,5.00
2017-09-01T15:09:37.075Z,5.40
2017-09-01T15:12:04.676Z,5.63
2017-09-01T15:14:34.222Z,5.20
2017-09-01T15:17:01.793Z,5.43
2017-09-01T15:19:29.460Z,6.30
2017-09-01T15:21:57.110Z,6.40
2017-09-01T15:24:24.774Z,5.60
2017-09-01T15:26:52.461Z,6.03
2017-09-01T15:29:20.151Z,5.40
2017-09-01T15:31:47.769Z,6.20
2017-09-01T15:34:15.417Z,5.60
2017-09-01T15:36:43.209Z,6.73
2017-09-01T15:39:10.840Z,5.80
2017-09-01T15:41:38.487Z,5.53
2017-09-01T15:44:06.165Z,5.13
2017-09-01T15:46:33.842Z,6.00
2017-09-01T15:51:36.472Z,5.27
2017-09-01T15:54:04.147Z,5.23
2017-09-01T15:56:31.764Z,6.00
2017-09-01T15:58:59.278Z,6.67
2017-09-01T16:01:26.817Z,5.20
2017-09-01T16:04:00.532Z,5.30
2017-09-01T16:06:28.134Z,5.00
2017-09-01T16:08:55.722Z,5.10
2017-09-01T16:11:23.251Z,5.30
2017-09-01T16:13:50.782Z,4.63
2017-09-01T16:16:19.270Z,5.10
2017-09-01T16:18:46.950Z,5.90
2017-09-01T16:21:14.494Z,7.07
2017-09-01T16:23:42.066Z,6.47
2017-09-01T16:26:09.625Z,5.47
2017-09-01T16:28:37.168Z,5.60
2017-09-01T16:31:05.643Z,4.97
2017-09-01T16:33:33.155Z,4.70
2017-09-01T16:36:01.827Z,5.70
2017-09-01T16:38:29.403Z,5.30
2017-09-01T16:40:56.941Z,5.37
2017-09-01T16:43:24.499Z,6.03
2017-09-01T16:45:52.085Z,7.13
2017-09-01T16:48:28.142Z,5.40
2017-09-01T16:50:55.666Z,6.50
2017-09-01T16:53:23.268Z,7.43
2017-09-01T16:55:51.772Z,7.43
2017-09-01T16:58:19.306Z,6.30
2017-09-01T17:00:52.965Z,6.80
2017-09-01T17:03:21.397Z,6.60
2017-09-01T17:05:48.951Z,7.43
2017-09-01T17:08:16.501Z,6.33
2017-09-01T17:10:48.540Z,6.17
2017-09-01T17:13:16.065Z,7.47
2017-09-01T17:15:43.778Z,6.73
2017-09-01T17:20:44.431Z,7.23
2017-09-01T17:23:12.003Z,6.83
2017-09-01T17:25:47.543Z,7.67
2017-09-01T17:28:15.163Z,7.13
2017-09-01T17:30:47.295Z,6.63
2017-09-01T17:33:14.886Z,6.37
2017-09-01T17:35:43.446Z,6.40
2017-09-01T17:38:11.878Z,6.10
2017-09-01T17:40:42.327Z,6.67
2017-09-01T17:43:09.886Z,6.70
2017-09-01T17:45:37.416Z,6.83
2017-09-01T17:48:10.769Z,6.57
2017-09-01T17:50:38.285Z,6.97
2017-09-01T17:53:05.810Z,6.07
2017-09-01T17:55:35.290Z,6.83
2017-09-01T17:58:02.851Z,6.37
2017-09-01T18:00:41.290Z,7.03
2017-09-01T18:03:08.806Z,5.60
2017-09-01T18:05:36.363Z,7.13
2017-09-01T18:08:04.416Z,6.57
2017-09-01T18:10:33.459Z,6.70
2017-09-01T18:13:00.984Z,6.50
2017-09-01T18:15:28.501Z,6.37
2017-09-01T18:17:56.074Z,6.17
2017-09-01T18:20:23.644Z,7.63
2017-09-01T18:22:51.173Z,7.37
2017-09-01T18:25:18.705Z,7.30
2017-09-01T18:27:46.216Z,7.10
2017-09-01T18:30:13.794Z,8.00
2017-09-01T18:32:41.309Z,7.60
2017-09-01T18:35:08.811Z,7.00
2017-09-01T18:37:36.338Z,7.50
2017-09-01T18:40:03.849Z,7.20
2017-09-01T18:42:31.385Z,7.53
2017-09-01T18:44:58.886Z,7.90
2017-09-01T18:47:26.442Z,6.20
2017-09-01T18:49:53.987Z,6.47
2017-09-01T18:52:22.699Z,8.00
2017-09-01T18:54:50.256Z,9.20
2017-09-01T18:57:17.776Z,9.68
2017-09-01T18:59:45.323Z,8.98
2017-09-01T19:02:12.856Z,8.60
2017-09-01T19:04:40.410Z,7.37
2017-09-01T19:07:07.968Z,6.97
2017-09-01T19:09:35.489Z,7.33
2017-09-01T19:12:03.048Z,8.10
2017-09-01T19:14:30.588Z,8.10
2017-09-01T19:16:58.135Z,7.78
2017-09-01T19:19:25.645Z,7.75
2017-09-01T19:21:53.186Z,7.82
2017-09-01T19:24:20.725Z,8.30
2017-09-01T19:26:48.314Z,7.50
2017-09-01T19:29:15.816Z,7.15
2017-09-01T19:31:43.325Z,6.63
2017-09-01T19:34:10.897Z,6.60
2017-09-01T19:36:39.554Z,6.90
2017-09-01T19:39:07.078Z,6.20
2017-09-01T19:41:35.045Z,6.32
2017-09-01T19:44:02.875Z,6.70
2017-09-01T19:46:30.428Z,6.40
2017-09-01T19:48:57.975Z,5.97
2017-09-01T19:51:25.480Z,5.50
2017-09-01T19:53:52.996Z,6.43
2017-09-01T19:56:20.569Z,5.80
2017-09-01T19:58:48.072Z,5.10
2017-09-01T20:01:15.635Z,4.60
2017-09-01T20:03:43.268Z,5.10
2017-09-01T20:06:11.851Z,5.37
2017-09-01T20:08:40.168Z,5.00
2017-09-01T20:11:07.678Z,4.70
2017-09-01T20:13:35.225Z,5.70
2017-09-01T20:16:02.760Z,5.00
2017-09-01T20:18:32.191Z,5.47
2017-09-01T20:20:59.732Z,5.62
2017-09-01T20:23:27.278Z,5.57
2017-09-01T20:26:01.624Z,5.00
2017-09-01T20:28:29.206Z,5.10
2017-09-01T20:30:56.739Z,5.33
2017-09-01T20:33:29.193Z,5.03
2017-09-01T20:35:56.765Z,4.72
2017-09-01T20:38:24.343Z,4.15
2017-09-01T20:40:59.362Z,5.05
2017-09-01T20:43:26.922Z,5.50
2017-09-01T20:45:59.352Z,5.55
2017-09-01T20:48:26.898Z,5.50
2017-09-01T20:50:54.452Z,4.85
2017-09-01T20:53:21.990Z,4.85
2017-09-01T20:55:52.241Z,5.00
2017-09-01T20:58:19.768Z,5.77
2017-09-01T21:00:47.294Z,5.50
2017-09-01T21:03:19.221Z,4.95
2017-09-01T21:05:46.743Z,5.23
2017-09-01T21:08:14.292Z,4.93
2017-09-01T21:10:41.827Z,5.40
2017-09-01T21:13:13.322Z,6.10
2017-09-01T21:15:40.877Z,5.50
2017-09-01T21:18:08.470Z,5.40
2017-09-01T21:20:41.004Z,4.93
2017-09-01T21:23:08.570Z,5.77
2017-09-01T21:25:36.141Z,5.47
2017-09-01T21:28:10.513Z,5.43
2017-09-01T21:30:38.036Z,6.50
2017-09-01T21:33:05.562Z,6.10
2017-09-01T21:35:36.701Z,6.10
2017-09-01T21:38:04.237Z,5.97
2017-09-01T21:40:31.794Z,5.35
2017-09-01T21:43:05.158Z,6.10
2017-09-01T21:45:32.736Z,6.83
2017-09-01T21:48:00.313Z,5.90
2017-09-01T21:50:35.701Z,6.27
2017-09-01T21:53:05.364Z,6.60
2017-09-01T21:55:32.964Z,6.60
2017-09-01T21:58:00.537Z,6.97
2017-09-01T22:00:28.186Z,7.25
2017-09-01T22:02:55.915Z,7.18
2017-09-01T22:05:24.390Z,10.03
2017-09-01T22:07:52.075Z,7.30
2017-09-01T22:10:19.694Z,7.53
2017-09-01T22:12:47.304Z,7.70
2017-09-01T22:15:14.898Z,8.02
2017-09-01T22:17:42.514Z,8.57
2017-09-01T22:20:10.104Z,10.53
2017-09-01T22:22:37.701Z,9.97
2017-09-01T22:25:06.193Z,10.37
2017-09-01T22:27:33.868Z,10.90
2017-09-01T22:30:01.500Z,10.02
2017-09-01T22:32:29.215Z,10.15
2017-09-01T22:34:56.809Z,9.35
2017-09-01T22:37:24.418Z,10.27
2017-09-01T22:39:52.040Z,11.40
2017-09-01T22:42:19.610Z,10.95
2017-09-01T22:44:47.179Z,12.02
2017-09-01T22:47:14.898Z,11.07
2017-09-01T22:49:42.559Z,12.10
2017-09-01T22:52:10.307Z,11.80
2017-09-01T22:54:37.928Z,11.15
2017-09-01T22:57:05.545Z,14.00
2017-09-01T22:59:33.190Z,16.02
2017-09-01T23:02:00.779Z,17.42
2017-09-01T23:04:28.356Z,21.40
2017-09-01T23:06:55.919Z,18.20
2017-09-01T23:09:23.693Z,15.85
2017-09-01T23:11:51.293Z,14.33
2017-09-01T23:14:18.977Z,10.83
2017-09-01T23:16:46.639Z,10.90
2017-09-01T23:19:14.469Z,11.53
2017-09-01T23:21:42.076Z,12.30
2017-09-01T23:24:09.748Z,13.10
2017-09-01T23:26:37.324Z,12.63
2017-09-01T23:29:04.869Z,12.90
2017-09-01T23:31:32.603Z,13.73
2017-09-01T23:34:00.265Z,12.90
2017-09-01T23:36:27.914Z,13.10
2017-09-01T23:38:55.515Z,13.98
2017-09-01T23:41:23.144Z,14.90
2017-09-01T23:43:50.710Z,14.27
2017-09-01T23:46:18.290Z,15.17
2017-09-01T23:48:45.925Z,15.90
2017-09-01T23:51:13.519Z,16.10
2017-09-01T23:53:41.139Z,16.77
2017-09-01T23:56:08.761Z,15.87
2017-09-01T23:58:36.494Z,14.03
